createdAt,value
2018-03-27T00:02:21.634Z,86.00
2018-03-27T00:04:50.115Z,86.50
2018-03-27T00:07:18.187Z,86.50
2018-03-27T00:09:46.362Z,86.10
2018-03-27T00:12:14.634Z,85.90
2018-03-27T00:14:42.711Z,86.10
2018-03-27T00:17:10.734Z,86.20
2018-03-27T00:19:38.616Z,87.20
2018-03-27T00:22:07.087Z,87.00
2018-03-27T00:24:50.244Z,87.10
2018-03-27T00:27:17.812Z,86.80
2018-03-27T00:29:57.755Z,86.80
2018-03-27T00:32:37.395Z,87.30
2018-03-27T00:35:17.140Z,87.70
2018-03-27T00:37:57.396Z,87.70
2018-03-27T00:40:37.551Z,88.30
2018-03-27T00:43:08.445Z,87.90
2018-03-27T00:45:36.840Z,87.60
2018-03-27T00:48:05.353Z,87.30
2018-03-27T00:50:33.680Z,87.80
2018-03-27T00:53:02.105Z,88.40
2018-03-27T00:55:30.447Z,88.80
2018-03-27T00:57:58.825Z,89.40
2018-03-27T01:00:27.098Z,89.20
2018-03-27T01:02:55.310Z,89.30
2018-03-27T01:05:23.485Z,89.30
2018-03-27T01:07:53.164Z,89.30
2018-03-27T01:10:21.260Z,89.30
2018-03-27T01:12:49.348Z,90.00
2018-03-27T01:15:17.468Z,89.50
2018-03-27T01:17:45.682Z,90.00
2018-03-27T01:20:13.546Z,89.20
2018-03-27T01:22:42.025Z,89.20
2018-03-27T01:25:10.505Z,89.60
2018-03-27T01:27:38.645Z,89.80
2018-03-27T01:30:07.059Z,90.00
2018-03-27T01:32:35.229Z,90.20
2018-03-27T01:35:03.603Z,89.90
2018-03-27T01:37:32.295Z,89.70
2018-03-27T01:40:00.437Z,90.00
2018-03-27T01:42:28.845Z,90.00
2018-03-27T01:44:56.907Z,89.40
2018-03-27T01:47:24.950Z,89.70
2018-03-27T01:49:53.469Z,89.80
2018-03-27T01:52:21.640Z,90.10
2018-03-27T01:54:49.710Z,89.40
2018-03-27T01:57:17.890Z,89.60
2018-03-27T01:59:46.060Z,89.20
2018-03-27T02:02:14.108Z,88.90
2018-03-27T02:04:42.775Z,90.00
2018-03-27T02:07:10.890Z,89.50
2018-03-27T02:09:38.920Z,89.40
2018-03-27T02:12:12.556Z,88.60
2018-03-27T02:14:46.260Z,88.20
2018-03-27T02:17:19.856Z,87.80
2018-03-27T02:19:53.360Z,87.50
2018-03-27T02:22:21.840Z,87.50
2018-03-27T02:24:50.184Z,87.10
2018-03-27T02:27:18.392Z,87.90
2018-03-27T02:29:46.256Z,88.30
2018-03-27T02:32:14.720Z,88.00
2018-03-27T02:34:42.911Z,88.20
2018-03-27T02:37:11.060Z,88.30
2018-03-27T02:39:39.366Z,88.50
2018-03-27T02:42:07.428Z,88.20
2018-03-27T02:44:36.830Z,88.60
2018-03-27T02:47:04.865Z,88.40
2018-03-27T02:49:33.081Z,89.00
2018-03-27T02:52:01.256Z,89.00
2018-03-27T02:54:29.422Z,89.10
2018-03-27T02:56:57.675Z,89.50
2018-03-27T02:59:25.664Z,89.80
2018-03-27T03:01:53.735Z,89.50
2018-03-27T03:04:22.205Z,89.60
2018-03-27T03:06:50.192Z,89.40
2018-03-27T03:09:18.534Z,89.30
2018-03-27T03:11:46.604Z,89.40
2018-03-27T03:14:14.710Z,90.10
2018-03-27T03:16:42.980Z,90.00
2018-03-27T03:19:12.385Z,89.90
2018-03-27T03:21:40.660Z,89.90
2018-03-27T03:24:08.843Z,89.80
2018-03-27T03:26:37.099Z,88.90
2018-03-27T03:29:05.075Z,88.50
2018-03-27T03:31:33.250Z,88.60
2018-03-27T03:34:01.220Z,88.70
2018-03-27T03:36:29.262Z,88.50
2018-03-27T03:38:57.460Z,87.90
2018-03-27T03:41:26.454Z,86.90
2018-03-27T03:43:54.830Z,87.30
2018-03-27T03:46:22.872Z,87.00
2018-03-27T03:48:51.165Z,88.30
2018-03-27T03:51:19.020Z,89.20
2018-03-27T03:53:46.920Z,90.10
2018-03-27T03:56:14.985Z,90.20
2018-03-27T03:58:43.025Z,90.30
2018-03-27T04:01:11.225Z,90.30
2018-03-27T04:03:40.216Z,90.50
2018-03-27T04:06:08.187Z,90.30
2018-03-27T04:08:38.000Z,91.10
2018-03-27T04:11:06.246Z,91.00
2018-03-27T04:13:34.345Z,91.00
2018-03-27T04:16:02.520Z,91.20
2018-03-27T04:18:31.714Z,91.20
2018-03-27T04:20:59.766Z,91.20
2018-03-27T04:23:27.960Z,91.20
2018-03-27T04:25:56.380Z,90.80
2018-03-27T04:28:24.486Z,90.50
2018-03-27T04:30:52.586Z,90.30
2018-03-27T04:33:20.720Z,90.10
2018-03-27T04:35:48.999Z,90.10
2018-03-27T04:38:16.895Z,90.30
2018-03-27T04:40:45.109Z,90.50
2018-03-27T04:43:13.305Z,90.70
2018-03-27T04:45:41.466Z,90.80
2018-03-27T04:48:09.588Z,90.70
2018-03-27T04:50:37.622Z,90.50
2018-03-27T04:53:05.635Z,90.90
2018-03-27T04:55:34.125Z,90.50
2018-03-27T04:58:03.718Z,90.70
2018-03-27T05:00:31.788Z,90.70
2018-03-27T05:02:59.962Z,90.70
2018-03-27T05:05:28.311Z,90.50
2018-03-27T05:07:56.208Z,90.50
2018-03-27T05:10:24.479Z,90.60
2018-03-27T05:12:52.345Z,90.90
2018-03-27T05:15:21.035Z,90.90
2018-03-27T05:17:49.309Z,90.80
2018-03-27T05:20:17.994Z,91.10
2018-03-27T05:22:46.973Z,90.50
2018-03-27T05:25:14.855Z,90.50
2018-03-27T05:27:43.607Z,90.30
2018-03-27T05:30:12.019Z,90.60
2018-03-27T05:32:40.188Z,90.10
2018-03-27T05:35:08.333Z,89.90
2018-03-27T05:37:36.334Z,90.20
2018-03-27T05:40:04.819Z,90.20
2018-03-27T05:42:32.783Z,89.80
2018-03-27T05:45:01.055Z,89.50
2018-03-27T05:47:29.443Z,89.40
2018-03-27T05:49:57.480Z,89.10
2018-03-27T05:52:25.686Z,89.60
2018-03-27T05:54:53.651Z,88.90
2018-03-27T05:57:23.468Z,88.50
2018-03-27T05:59:51.325Z,88.50
2018-03-27T06:02:19.805Z,87.80
2018-03-27T06:04:48.302Z,87.40
2018-03-27T06:07:17.277Z,87.80
2018-03-27T06:09:45.352Z,87.80
2018-03-27T06:12:14.650Z,87.50
2018-03-27T06:14:44.476Z,87.20
2018-03-27T06:17:12.441Z,87.10
2018-03-27T06:19:40.809Z,87.80
2018-03-27T06:22:10.115Z,88.60
2018-03-27T06:24:38.171Z,87.90
2018-03-27T06:27:06.229Z,88.60
2018-03-27T06:29:35.057Z,88.20
2018-03-27T06:32:04.039Z,87.50
2018-03-27T06:34:32.188Z,87.40
2018-03-27T06:37:00.359Z,86.30
2018-03-27T06:39:28.864Z,86.00
2018-03-27T06:41:56.929Z,85.50
2018-03-27T06:44:24.977Z,86.70
2018-03-27T06:46:53.174Z,85.70
2018-03-27T06:49:21.343Z,84.60
2018-03-27T06:51:49.494Z,84.00
2018-03-27T06:54:17.762Z,82.80
2018-03-27T06:56:45.665Z,81.40
2018-03-27T06:59:15.710Z,78.00
2018-03-27T07:01:44.882Z,76.70
2018-03-27T07:04:12.909Z,76.70
2018-03-27T07:06:41.438Z,77.00
2018-03-27T07:09:09.507Z,75.90
2018-03-27T07:11:37.554Z,72.90
2018-03-27T07:14:06.156Z,71.20
2018-03-27T07:16:34.444Z,72.40
2018-03-27T07:19:02.620Z,73.20
2018-03-27T07:21:31.802Z,75.40
2018-03-27T07:24:00.074Z,75.30
2018-03-27T07:26:28.117Z,74.80
2018-03-27T07:28:56.112Z,74.90
2018-03-27T07:31:23.980Z,74.10
2018-03-27T07:33:52.153Z,75.10
2018-03-27T07:36:20.189Z,75.70
2018-03-27T07:38:48.087Z,75.60
2018-03-27T07:41:16.178Z,75.40
2018-03-27T07:43:45.032Z,73.90
2018-03-27T07:46:13.200Z,73.80
2018-03-27T07:48:41.278Z,73.50
2018-03-27T07:51:09.467Z,72.30
2018-03-27T07:53:37.957Z,73.00
2018-03-27T07:56:06.189Z,72.10
2018-03-27T07:58:34.207Z,71.80
2018-03-27T08:01:02.469Z,71.80
2018-03-27T08:03:30.629Z,72.00
2018-03-27T08:05:58.777Z,71.60
2018-03-27T08:08:26.795Z,72.10
2018-03-27T08:10:55.269Z,72.10
2018-03-27T08:13:23.847Z,72.00
2018-03-27T08:15:52.470Z,71.90
2018-03-27T08:18:21.320Z,70.40
2018-03-27T08:20:49.699Z,70.30
2018-03-27T08:23:17.872Z,70.10
2018-03-27T08:25:47.889Z,70.00
2018-03-27T08:28:15.964Z,69.90
2018-03-27T08:30:44.232Z,71.10
2018-03-27T08:33:12.379Z,70.30
2018-03-27T08:35:40.286Z,69.90
2018-03-27T08:38:08.833Z,69.50
2018-03-27T08:40:36.897Z,69.80
2018-03-27T08:43:05.104Z,70.40
2018-03-27T08:45:33.273Z,70.70
2018-03-27T08:48:01.790Z,70.70
2018-03-27T08:50:30.606Z,66.80
2018-03-27T08:52:59.345Z,66.80
2018-03-27T08:55:27.468Z,65.30
2018-03-27T08:57:55.784Z,65.40
2018-03-27T09:00:23.818Z,65.20
2018-03-27T09:02:51.920Z,64.40
2018-03-27T09:05:19.834Z,64.40
2018-03-27T09:07:48.065Z,66.10
2018-03-27T09:10:16.309Z,66.00
2018-03-27T09:12:44.514Z,65.20
2018-03-27T09:15:12.904Z,65.60
2018-03-27T09:17:42.306Z,65.20
2018-03-27T09:20:10.325Z,65.20
2018-03-27T09:22:38.654Z,64.90
2018-03-27T09:25:06.813Z,65.00
2018-03-27T09:27:34.890Z,66.30
2018-03-27T09:30:03.175Z,66.90
2018-03-27T09:32:31.614Z,66.70
2018-03-27T09:35:00.345Z,66.20
2018-03-27T09:37:29.321Z,65.30
2018-03-27T09:39:57.593Z,65.20
2018-03-27T09:42:25.972Z,64.30
2018-03-27T09:44:54.152Z,62.80
2018-03-27T09:47:22.116Z,62.60
2018-03-27T09:49:50.080Z,61.30
2018-03-27T09:52:18.733Z,60.60
2018-03-27T09:54:47.460Z,60.00
2018-03-27T09:57:15.830Z,59.90
2018-03-27T09:59:44.006Z,58.90
2018-03-27T10:02:12.075Z,60.10
2018-03-27T10:04:40.609Z,60.90
2018-03-27T10:07:08.940Z,60.70
2018-03-27T10:09:38.818Z,58.80
2018-03-27T10:12:07.224Z,58.80
2018-03-27T10:14:35.364Z,60.20
2018-03-27T10:17:03.774Z,61.50
2018-03-27T10:19:31.649Z,60.80
2018-03-27T10:21:59.996Z,58.30
2018-03-27T10:24:28.501Z,59.10
2018-03-27T10:26:56.574Z,57.80
2018-03-27T10:29:25.250Z,55.00
2018-03-27T10:31:54.187Z,55.30
2018-03-27T10:34:23.157Z,54.50
2018-03-27T10:36:52.338Z,53.80
2018-03-27T10:39:20.497Z,53.70
2018-03-27T10:41:49.054Z,53.70
2018-03-27T10:44:17.270Z,53.30
2018-03-27T10:46:45.457Z,52.30
2018-03-27T10:49:13.619Z,52.80
2018-03-27T10:51:41.765Z,53.60
2018-03-27T10:54:10.099Z,53.00
2018-03-27T10:56:38.908Z,52.00
2018-03-27T10:59:07.234Z,52.00
2018-03-27T11:01:35.492Z,52.80
2018-03-27T11:04:03.685Z,52.80
2018-03-27T11:06:32.157Z,52.90
2018-03-27T11:09:00.504Z,53.40
2018-03-27T11:11:29.132Z,52.90
2018-03-27T11:13:57.212Z,52.80
2018-03-27T11:16:26.154Z,51.00
2018-03-27T11:18:54.750Z,51.00
2018-03-27T11:21:22.834Z,51.10
2018-03-27T11:23:51.081Z,51.90
2018-03-27T11:26:19.389Z,52.10
2018-03-27T11:28:47.549Z,52.90
2018-03-27T11:31:15.601Z,53.80
2018-03-27T11:33:43.804Z,53.10
2018-03-27T11:36:12.142Z,52.20
2018-03-27T11:38:40.358Z,51.50
2018-03-27T11:41:08.640Z,51.30
2018-03-27T11:43:36.810Z,50.40
2018-03-27T11:46:05.085Z,49.60
2018-03-27T11:48:34.792Z,49.00
2018-03-27T11:51:02.942Z,49.60
2018-03-27T11:53:31.351Z,46.30
2018-03-27T11:55:59.591Z,46.40
2018-03-27T11:58:27.795Z,46.80
2018-03-27T12:00:55.872Z,47.20
2018-03-27T12:03:24.057Z,46.80
2018-03-27T12:05:52.430Z,46.10
2018-03-27T12:08:20.595Z,46.80
2018-03-27T12:10:48.658Z,42.80
2018-03-27T12:13:16.733Z,39.00
2018-03-27T12:15:44.803Z,38.60
2018-03-27T12:18:12.854Z,39.80
2018-03-27T12:20:41.451Z,40.70
2018-03-27T12:23:09.538Z,41.80
2018-03-27T12:25:38.461Z,42.50
2018-03-27T12:28:06.796Z,42.10
2018-03-27T12:30:35.078Z,44.10
2018-03-27T12:33:03.267Z,44.30
2018-03-27T12:35:32.849Z,45.20
2018-03-27T12:38:01.233Z,45.00
2018-03-27T12:40:29.413Z,45.60
2018-03-27T12:42:57.550Z,46.00
2018-03-27T12:45:25.650Z,47.60
2018-03-27T12:47:53.830Z,47.10
2018-03-27T12:50:23.324Z,48.20
2018-03-27T12:52:51.534Z,48.10
2018-03-27T12:55:20.489Z,48.50
2018-03-27T12:57:48.529Z,48.40
2018-03-27T13:00:17.989Z,50.30
2018-03-27T13:02:46.149Z,49.60
2018-03-27T13:05:15.249Z,49.80
2018-03-27T13:07:44.430Z,47.50
2018-03-27T13:10:12.410Z,47.50
2018-03-27T13:12:40.778Z,47.80
2018-03-27T13:15:08.757Z,47.80
2018-03-27T13:17:37.016Z,48.10
2018-03-27T13:20:05.409Z,48.20
2018-03-27T13:22:34.409Z,48.30
2018-03-27T13:25:03.490Z,48.00
2018-03-27T13:27:32.689Z,47.90
2018-03-27T13:30:00.963Z,48.10
2018-03-27T13:32:29.199Z,48.20
2018-03-27T13:34:57.529Z,49.10
2018-03-27T13:37:25.788Z,49.50
2018-03-27T13:39:53.829Z,49.00
2018-03-27T13:42:22.148Z,49.00
2018-03-27T13:44:50.430Z,48.40
2018-03-27T13:47:19.608Z,49.10
2018-03-27T13:49:47.674Z,49.00
2018-03-27T13:52:16.251Z,48.40
2018-03-27T13:54:44.533Z,49.00
2018-03-27T13:57:14.249Z,48.30
2018-03-27T13:59:43.529Z,49.20
2018-03-27T14:02:17.561Z,49.20
2018-03-27T14:04:45.728Z,49.40
2018-03-27T14:07:13.811Z,49.60
2018-03-27T14:09:42.241Z,49.60
2018-03-27T14:12:10.249Z,50.70
2018-03-27T14:14:38.658Z,50.60
2018-03-27T14:17:08.029Z,51.50
2018-03-27T14:19:36.289Z,51.40
2018-03-27T14:22:04.849Z,51.10
2018-03-27T14:24:33.170Z,52.00
2018-03-27T14:27:01.529Z,51.60
2018-03-27T14:29:29.921Z,52.80
2018-03-27T14:31:58.089Z,55.00
2018-03-27T14:34:27.297Z,55.80
2018-03-27T14:36:55.621Z,55.50
2018-03-27T14:39:23.772Z,57.10
2018-03-27T14:41:52.628Z,57.10
2018-03-27T14:44:20.949Z,56.60
2018-03-27T14:46:50.204Z,56.20
2018-03-27T14:49:18.396Z,56.20
2018-03-27T14:51:46.777Z,56.60
2018-03-27T14:54:15.549Z,58.50
2018-03-27T14:56:43.829Z,58.50
2018-03-27T14:59:12.749Z,59.90
2018-03-27T15:01:41.705Z,63.10
2018-03-27T15:04:12.395Z,63.10
2018-03-27T15:06:40.513Z,64.10
2018-03-27T15:09:08.983Z,64.60
2018-03-27T15:11:37.069Z,64.70
2018-03-27T15:14:05.148Z,64.40
2018-03-27T15:16:34.468Z,63.10
2018-03-27T15:19:03.539Z,63.50
2018-03-27T15:21:32.710Z,62.60
2018-03-27T15:24:00.917Z,62.90
2018-03-27T15:26:29.188Z,62.80
2018-03-27T15:28:57.549Z,61.70
2018-03-27T15:31:25.829Z,61.70
2018-03-27T15:33:54.208Z,60.80
2018-03-27T15:36:23.109Z,57.80
2018-03-27T15:38:53.031Z,57.80
2018-03-27T15:41:22.008Z,49.40
2018-03-27T15:43:49.990Z,49.20
2018-03-27T15:46:18.117Z,47.10
2018-03-27T15:48:46.540Z,46.50
2018-03-27T15:51:15.509Z,47.40
2018-03-27T15:53:44.189Z,47.30
2018-03-27T15:56:12.268Z,46.80
2018-03-27T15:58:40.249Z,46.50
2018-03-27T16:01:10.589Z,46.20
2018-03-27T16:03:38.751Z,46.20
2018-03-27T16:06:07.833Z,47.10
2018-03-27T16:08:36.329Z,46.90
2018-03-27T16:11:04.914Z,47.10
2018-03-27T16:13:33.178Z,46.10
2018-03-27T16:16:02.689Z,47.50
2018-03-27T16:18:30.677Z,47.50
2018-03-27T16:21:00.171Z,47.80
2018-03-27T16:23:29.201Z,48.90
2018-03-27T16:25:57.770Z,48.30
2018-03-27T16:28:26.006Z,50.30
2018-03-27T16:30:54.188Z,51.90
2018-03-27T16:33:22.669Z,52.60
2018-03-27T16:35:51.117Z,53.90
2018-03-27T16:38:19.537Z,54.90
2018-03-27T16:40:48.831Z,57.10
2018-03-27T16:43:18.529Z,57.20
2018-03-27T16:45:47.037Z,58.70
2018-03-27T16:48:16.108Z,60.50
2018-03-27T16:50:44.489Z,60.50
2018-03-27T16:53:12.474Z,61.80
2018-03-27T16:55:41.329Z,63.50
2018-03-27T16:58:09.529Z,63.50
2018-03-27T17:00:37.552Z,63.90
2018-03-27T17:03:05.630Z,64.60
2018-03-27T17:05:33.929Z,64.30
2018-03-27T17:08:01.800Z,63.90
2018-03-27T17:10:31.674Z,65.50
2018-03-27T17:12:59.780Z,65.50
2018-03-27T17:15:27.959Z,66.60
2018-03-27T17:17:55.828Z,67.70
2018-03-27T17:20:23.998Z,68.60
2018-03-27T17:22:52.374Z,68.70
2018-03-27T17:25:20.853Z,69.30
2018-03-27T17:27:48.926Z,69.20
2018-03-27T17:30:16.994Z,69.40
2018-03-27T17:32:45.353Z,69.70
2018-03-27T17:35:13.546Z,70.30
2018-03-27T17:37:41.414Z,70.70
2018-03-27T17:40:09.795Z,70.70
2018-03-27T17:42:38.167Z,70.80
2018-03-27T17:45:06.759Z,71.20
2018-03-27T17:47:35.307Z,71.60
2018-03-27T17:50:03.580Z,71.60
2018-03-27T17:52:31.650Z,71.50
2018-03-27T17:55:00.269Z,71.60
2018-03-27T17:57:28.516Z,71.40
2018-03-27T17:59:56.720Z,72.60
2018-03-27T18:02:24.856Z,72.60
2018-03-27T18:04:52.858Z,73.70
2018-03-27T18:07:21.244Z,73.90
2018-03-27T18:09:49.719Z,74.10
2018-03-27T18:12:17.793Z,73.90
2018-03-27T18:14:46.459Z,73.50
2018-03-27T18:17:14.958Z,72.70
2018-03-27T18:19:44.324Z,73.00
2018-03-27T18:22:12.645Z,73.40
2018-03-27T18:24:40.710Z,74.10
2018-03-27T18:27:08.979Z,74.00
2018-03-27T18:29:37.565Z,73.60
2018-03-27T18:32:06.872Z,74.40
2018-03-27T18:34:36.472Z,74.70
2018-03-27T18:37:06.160Z,74.60
2018-03-27T18:39:35.290Z,74.60
2018-03-27T18:42:04.645Z,74.80
2018-03-27T18:44:34.277Z,74.60
2018-03-27T18:47:02.775Z,74.60
2018-03-27T18:49:32.191Z,74.60
2018-03-27T18:52:00.542Z,74.50
2018-03-27T18:54:29.096Z,75.60
2018-03-27T18:56:58.015Z,74.50
2018-03-27T18:59:26.394Z,74.10
2018-03-27T19:01:54.902Z,73.80
2018-03-27T19:04:23.151Z,74.70
2018-03-27T19:06:51.745Z,74.50
2018-03-27T19:09:21.380Z,76.00
2018-03-27T19:11:50.904Z,76.00
2018-03-27T19:14:19.616Z,76.50
2018-03-27T19:16:48.382Z,76.70
2018-03-27T19:19:16.503Z,76.00
2018-03-27T19:21:44.940Z,76.00
2018-03-27T19:24:13.350Z,76.60
2018-03-27T19:26:41.944Z,76.50
2018-03-27T19:29:11.839Z,77.90
2018-03-27T19:31:40.436Z,77.30
2018-03-27T19:34:08.846Z,77.40
2018-03-27T19:36:38.620Z,77.50
2018-03-27T19:39:08.417Z,77.50
2018-03-27T19:41:37.634Z,77.30
2018-03-27T19:44:08.303Z,78.10
2018-03-27T19:46:37.678Z,78.00
2018-03-27T19:49:07.120Z,78.20
2018-03-27T19:51:35.883Z,78.60
2018-03-27T19:54:04.124Z,79.70
2018-03-27T19:56:32.200Z,79.60
2018-03-27T19:59:00.671Z,79.40
2018-03-27T20:01:29.139Z,79.80
2018-03-27T20:03:57.338Z,80.40
2018-03-27T20:06:26.021Z,80.90
2018-03-27T20:08:53.950Z,80.80
2018-03-27T20:11:22.585Z,81.10
2018-03-27T20:13:52.281Z,81.80
2018-03-27T20:16:23.630Z,81.80
2018-03-27T20:18:51.587Z,82.20
2018-03-27T20:21:19.469Z,81.70
2018-03-27T20:23:47.840Z,82.00
2018-03-27T20:26:16.010Z,82.50
2018-03-27T20:28:44.084Z,83.50
2018-03-27T20:31:12.770Z,83.20
2018-03-27T20:33:40.605Z,83.20
2018-03-27T20:36:09.022Z,82.90
2018-03-27T20:38:39.025Z,83.60
2018-03-27T20:41:07.205Z,83.60
2018-03-27T20:43:35.280Z,84.10
2018-03-27T20:46:05.025Z,84.90
2018-03-27T20:48:33.155Z,84.90
2018-03-27T20:51:01.317Z,85.30
2018-03-27T20:53:29.387Z,85.50
2018-03-27T20:55:57.469Z,85.60
2018-03-27T20:58:27.548Z,85.70
2018-03-27T21:00:55.455Z,85.80
2018-03-27T21:03:23.355Z,85.90
2018-03-27T21:05:52.005Z,85.40
2018-03-27T21:08:20.091Z,85.50
2018-03-27T21:10:47.950Z,85.90
2018-03-27T21:13:15.802Z,85.50
2018-03-27T21:15:44.810Z,84.20
2018-03-27T21:18:12.979Z,84.20
2018-03-27T21:20:40.848Z,83.70
2018-03-27T21:23:08.918Z,83.90
2018-03-27T21:25:36.780Z,84.20
2018-03-27T21:28:04.847Z,84.40
2018-03-27T21:30:33.030Z,84.60
2018-03-27T21:33:00.848Z,84.70
2018-03-27T21:35:31.010Z,84.30
2018-03-27T21:38:00.609Z,84.30
2018-03-27T21:40:29.405Z,84.00
2018-03-27T21:42:58.905Z,85.00
2018-03-27T21:45:27.285Z,85.00
2018-03-27T21:47:55.647Z,85.00
2018-03-27T21:50:24.051Z,84.40
2018-03-27T21:52:52.110Z,83.80
2018-03-27T21:55:20.085Z,83.40
2018-03-27T21:57:48.155Z,83.30
2018-03-27T22:00:16.125Z,83.50
2018-03-27T22:02:43.992Z,84.10
2018-03-27T22:05:12.239Z,84.50
2018-03-27T22:07:40.347Z,84.70
2018-03-27T22:10:08.814Z,84.40
2018-03-27T22:12:36.991Z,84.60
2018-03-27T22:15:05.317Z,84.60
2018-03-27T22:17:33.750Z,84.30
2018-03-27T22:20:01.817Z,83.90
2018-03-27T22:22:29.784Z,83.70
2018-03-27T22:24:57.897Z,83.50
2018-03-27T22:27:25.831Z,83.10
2018-03-27T22:29:54.065Z,83.60
2018-03-27T22:32:22.275Z,83.30
2018-03-27T22:34:50.313Z,83.50
2018-03-27T22:37:18.693Z,84.00
2018-03-27T22:39:46.973Z,84.40
2018-03-27T22:42:15.075Z,85.10
2018-03-27T22:44:44.271Z,86.90
2018-03-27T22:47:12.335Z,87.00
2018-03-27T22:49:40.590Z,87.10
2018-03-27T22:52:08.480Z,87.60
2018-03-27T22:54:36.755Z,87.20
2018-03-27T22:57:04.827Z,87.50
2018-03-27T22:59:32.795Z,87.30
2018-03-27T23:02:01.785Z,86.70
2018-03-27T23:04:29.655Z,87.10
2018-03-27T23:06:57.620Z,87.10
2018-03-27T23:09:25.493Z,87.90
2018-03-27T23:11:53.700Z,88.60
2018-03-27T23:14:22.455Z,89.70
2018-03-27T23:16:50.832Z,89.70
2018-03-27T23:19:18.901Z,89.80
2018-03-27T23:21:48.406Z,89.70
2018-03-27T23:24:16.562Z,89.70
2018-03-27T23:26:44.720Z,90.10
2018-03-27T23:29:12.715Z,89.80
2018-03-27T23:31:40.995Z,89.80
2018-03-27T23:34:10.811Z,89.90
2018-03-27T23:36:39.085Z,89.90
2018-03-27T23:39:08.559Z,90.20
2018-03-27T23:41:36.866Z,90.00
2018-03-27T23:44:04.931Z,90.30
2018-03-27T23:46:32.802Z,90.20
2018-03-27T23:49:01.690Z,90.90
2018-03-27T23:51:29.829Z,90.90
2018-03-27T23:53:58.011Z,90.70
2018-03-27T23:56:26.287Z,90.80
2018-03-27T23:58:54.555Z,90.90
